Aeroporto :
LOGIN :

Iscrizione | Disclaimer

   EN    FR    IT 

 










Sommario :    VFR   VFR Marginale   IFR   IFR Intensivo   IFR Molto Intensivo
Visibilità : 
Base nubi : 
>= 8 km
>= 3000ft
5 / 8 km
1000 / 3000 ft
1500m / 5 km
500 / 1000 ft
800 / 1500m
200 / 500 ft
< 800m
< 200 ft
Simboli :   Temporali  Nebbia  Neve Forte  Precipitazioni Forti  Vento > 20 kt
SIGMETs :   Varie  Temporali  Ghiacco  Turbolenza  Onda orograficha  Ceneri Vulcaniche






- Altitudine del aeroporto : 2313 ft
- Codice IATA : OHD


LWOH - Ohrid

ULTIMO METAR :
  • 271130Z 20011KT 9999 FEW020 BKN040 04/M01 Q1007

METARs OBSOLETI :
  • 271100Z 14008KT 9999 FEW020 BKN040 05/M01 Q1006
  • 271030Z 21008KT 9999 -RA FEW020 BKN040 04/M00 Q1007
  • 271000Z 24014KT 9999 -RA FEW030TCU BKN040 04/M01 Q1006
  • 270930Z 22009KT 9999 FEW030TCU BKN040 05/M01 Q1006
  • 270900Z 20011G22KT 170V240 9999 VCTS FEW030CB BKN040 04/M01 Q1006

TAF TAF LWOH
Valido dal 27 a 09 ore il 28 a 09 ore UTC


270830Z 2709/2809 20012G22KT 9999 SCT040 BKN060
TEMPO 2709/2715 SHRA SCT030TCU BKN040
TEMPO 2715/2718 27015KT SNRA SCT020 OVC030



MetMap, La meteo Aeronautica in un colpo d'occhio ! - Copyright ORBIFLY Dicembre 2007 - Disclaimer

ORBIFLY MET'MAP TEAM :

Programmazione e sviluppo : Alexandra Zaïnal
Concezione : Baudouin d'Aumeries
Aiuto per la programmazione : Marc-Olivier Méhu
Supporto tecnico e logistico : Manuel Goepfert
Aiuto per la traduzione : Arnaldo La Scala

Contatto : metmap@orbifly.com




FONTI E CREDITI :

   NOAA